7TA2 weather

Club House Nr 1 Heliport
Pearland, Texas, United States

Public forecast

Using degrees Fahrenheit for public forecast. Weather courtesy of forecast.io.

METAR (pilot weather report)

Closest report is Pearland Regional Airport, 2.6 nm (4.7 km) S. Retrieved 2019/09/22 06:53 UTC (38 minutes ago):

KLVJ 220653Z AUTO 13003KT 10SM CLR 26/23 A3002 RMK AO2 SLP165 T02610233

TAF (pilot weather forecast)

Closest forecast is William P Hobby Airport, 5.2 nm (9.6 km) NNW. Retrieved 2019/09/22 06:22 UTC (1 hour ago):

TAF KHOU 220520Z 2206/2306 11005KT P6SM FEW015 FEW250 TEMPO 2214/2216 BKN025 FM221600 14010KT P6SM VCSH SCT025 BKN035 FM222100 15010KT P6SM SCT040 BKN250 FM230200 14005KT P6SM FEW025 SCT250